Terminal Aerodrome Forecast
Issued by NWS Duluth, MN

Home | Current Version | Previous Version | Text Only | Print | Product List | Glossary On
Versions: 1 2 3 4 5 6 7 8 9 10 11 12 13 14
480
FTUS43 KDLH 202341
TAFINL
TAF
KINL 202341Z 2100/2124 16008G15KT P6SM FEW035
     FM210400 18005KT P6SM VCTS SCT050CB SCT100
     FM210800 17005KT 4SM -SHRA VCTS BKN025CB OVC040
     FM211000 22008KT 2SM -RA BR VCTS OVC025CB
     FM211400 29008KT P6SM SCT025 BKN150=

USA.gov is the U.S. government's official web portal to all federal, state and local government web resources and services.